Highlands Peak, California Weather observations

Data are for observation ending at time listed.
 Day   Time    Ave.   Ave.  Ave.  Vector   Max.   Stn.    Total    Solar   Ave.  
  of    of     Air    Rel.  Wind   Wind    Wind   Baro.  Precip.   Rad.    Soil  
Year   Day     Temp.  Hum.  Speed  Dir.    Gust   Pres.                    Temp. 
2014   (PST)    F      %     mph   deg.    mph     mb.     in.     W/m2     F   
------------------------------------------------------------------------------
 327    8:50   58.6    18    3.4   222      6.1   937.3    0.00     363    49.4
 327    9:00   59.2    19    3.6   198      6.1   937.4    0.00     363    49.5
 327    9:10   60.0    18    5.1   164      7.3   937.4    0.00     388    49.5
 327    9:20   60.7    19    4.3   169      7.3   937.5    0.00     395    49.6
 327    9:30   60.7    20    3.0   187      5.4   937.5    0.00     360    49.7
 327    9:40   61.4    20    2.4   145      4.4   937.4    0.00     469    49.8
 327    9:50   61.9    19    2.3   138      5.9   937.3    0.00     500    49.9
 327   10:00   62.2    19    2.6   275      4.8   937.4    0.00     526    50.1
 327   10:10   61.0    21    3.3   275      4.7   937.6    0.00     543    50.2
 327   10:20   60.2    22    4.3   274      7.6   937.8    0.00     559    50.4
 327   10:30   60.5    22    5.8   304     10.4   937.9    0.00     574    50.6
 327   10:40   60.7    25    3.2   294      7.5   937.9    0.00     587    50.8
 327   10:50   59.7    29    1.7   278      4.2   938.0    0.00     599    51.1
 327   11:00   60.1    29    2.1    28      5.4   937.9    0.00     609    51.3
 327   11:10   61.8    24    1.7    60      3.8   937.7    0.00     617    51.5
 327   11:20   61.8    31    2.0   314      7.2   937.8    0.00     624    51.8
 327   11:30   61.1    35    2.6   261      5.8   937.8    0.00     625    52.0
 327   11:40   60.9    39    2.6   238      5.4   937.8    0.00     607    52.3
 327   11:50   60.9    36    2.8   233      7.3   937.6    0.00     633    52.6
 327   12:00   60.9    40    3.4   264      5.4   937.6    0.00     629    52.8
 327   12:10   60.5    42    3.1   258      5.6   937.5    0.00     629    53.1
 327   12:20   59.8    53    3.2   265      5.4   937.4    0.00     586    53.4
 327   12:30   59.3    60    1.8   246      4.5   937.2    0.00     526    53.6
 327   12:40   59.4    61    4.4   271      6.1   937.1    0.00     610    53.9
 327   12:50   58.5    58    3.5   274      5.3   937.1    0.00     597    54.3
 327   13:00   58.2    57    4.7   278      8.1   937.1    0.00     554    54.6
 327   13:10   57.5    55    4.0   275      5.9   937.1    0.00     521    54.9
 327   13:20   57.2    53    3.3   277      5.0   937.1    0.00     507    55.2
 327   13:30   57.4    58    2.2   275      4.4   936.9    0.00     395    55.5
 327   13:40   57.5    61    1.9   274      3.9   936.8    0.00     405    55.7
 327   13:50   57.7    64    2.7   268      5.4   936.8    0.00     450    55.9
 327   14:00   58.8    65    2.3   247      4.2   936.9    0.00     501    56.2
 327   14:10   57.8    65    3.0   265      7.1   936.9    0.00     420    56.5
 327   14:20   58.2    66    3.2   256      6.0   936.9    0.00     382    56.7
 327   14:30   57.5    68    2.6   286      5.6   936.9    0.00     450    57.0
 327   14:40   57.8    68    2.4   284      4.6   937.0    0.00     421    57.2
 327   14:50   59.1    65    1.5   246      3.5   936.8    0.00     377    57.4
 327   15:00   59.6    65    3.2   253      5.8   936.6    0.00     341    57.6
 327   15:10   58.4    68    2.4   278      4.7   936.8    0.00     311    57.8
 327   15:20   59.3    67    1.7   280      3.9   936.7    0.00     267    58.0
 327   15:30   59.5    68    1.0   124      2.7   936.7    0.00     241    58.1
 327   15:40   59.4    67    1.2   182      4.3   936.8    0.00     205    58.2
 327   15:50   60.2    66    1.3   259      3.9   936.8    0.00     175    58.4
 327   16:00   59.7    68    2.1   248      3.6   937.0    0.00     141    58.5
 327   16:10   59.1    68    3.5   266      5.3   937.0    0.00     128    58.7
 327   16:20   58.0    69    1.0   298      3.2   937.1    0.00     107    58.7
 327   16:30   58.0    69    1.0   104      4.1   936.9    0.00      79    58.8
 327   16:40   57.7    58    2.6   348      4.1   936.7    0.00      52    58.8
 327   16:50   58.0    45    4.7   320      6.1   936.6    0.00      24    58.9
 327   17:00   56.7    48    7.8   307     10.2   936.6    0.00       6    58.8
 327   17:10   55.1    55    6.9   320      9.1   936.6    0.00       1    58.8
 327   17:20   55.7    40    7.2   328      9.9   936.7    0.00       0    58.7
 327   17:30   56.0    36    7.9   325     10.9   936.7    0.00       0    58.7
 327   17:40   56.1    32   10.0   311     13.0   936.8    0.00       0    58.5
 327   17:50   56.1    30    9.7   315     12.4   936.8    0.00       0    58.4
 327   18:00   56.4    28    9.3   314     12.2   937.0    0.00       0    58.3
 327   18:10   55.6    28    7.7   314     11.8   937.0    0.00       0    58.2
 327   18:20   55.4    28    7.1   312      9.8   937.0    0.00       0    58.1
 327   18:30   55.5    25    5.9   312      8.7   936.9    0.00       0    57.9
 327   18:40   56.3    17    4.8   333      7.2   936.9    0.00       0    57.8
 327   18:50   57.5    15    5.4   309      8.7   937.0    0.00       0    57.6
 327   19:00   55.8    22    9.2   307     11.8   937.1    0.00       0    57.5
 327   19:10   55.5    21    9.4   310     12.6   937.1    0.00       0    57.3
 327   19:20   56.1    17    8.8   322     11.8   937.2    0.00       0    57.1
 327   19:30   57.0    14    8.0   327     10.5   937.3    0.00       0    57.0
 327   19:40   57.2    14    8.8   313     11.8   937.3    0.00       0    56.8
 327   19:50   55.9    14    7.4   312     10.9   937.4    0.00       0    56.7
 327   20:00   57.1    10    5.8   306      8.6   937.4    0.00       0    56.5
 327   20:10   56.7    12    5.8   301      8.8   937.6    0.00       0    56.4
 327   20:20   55.2    15   10.1   312     12.4   937.6    0.00       0    56.2
 327   20:30   55.5    14    7.5   343     10.1   937.5    0.00       0    56.1
 327   20:40   57.0    11    6.6   327     10.4   937.5    0.00       0    56.0
 327   20:50   56.7    10    5.1   314      7.4   937.6    0.00       0    55.8
 327   21:00   57.0     9    4.8   314      7.9   937.6    0.00       0    55.7
 327   21:10   57.5     8    6.6   329     10.9   937.7    0.00       0    55.5
 327   21:20   59.1     7    5.5   355      9.5   937.6    0.00       0    55.3
 327   21:30   59.1     6    4.8   324      7.5   937.7    0.00       0    55.1
 327   21:40   58.6     6    5.0   314      6.7   937.7    0.00       0    55.0
 327   21:50   57.9     7    5.6   312      7.7   937.6    0.00       0    54.9
 327   22:00   58.4     7    6.9   320      9.7   937.7    0.00       0    54.8
 327   22:10   58.2     8    6.4   327      8.8   937.8    0.00       0    54.6
 327   22:20   57.6     8    6.5   323     10.4   937.9    0.00       0    54.5
 327   22:30   57.3     8    5.5   324      7.7   938.0    0.00       0    54.4
 327   22:40   57.7     7    4.7   355      6.6   938.0    0.00       0    54.3
 327   22:50   58.9     6    4.0    55      6.6   938.0    0.00       0    54.2
 327   23:00   59.2     5    3.3    72      5.3   937.9    0.00       0    54.1
 327   23:10   59.4     5    3.8    21      6.3   937.9    0.00       0    54.0
 327   23:20   58.4     5    4.5   316      6.2   937.9    0.00       0    53.9
 327   23:30   58.4     5    2.7    45      5.5   938.0    0.00       0    53.8
 327   23:40   59.4     5    2.7    80      4.3   938.0    0.00       0    53.7
 327   23:50   59.2     4    4.0    39      6.3   938.0    0.00       0    53.6
 328    0:00   59.0     5    5.3    67      6.9   937.9    0.00       0    53.5
 328    0:10   59.2     4    4.2    73      6.8   937.9    0.00       0    53.5
 328    0:20   59.5     4    3.5    62      7.5   937.9    0.00       0    53.3
 328    0:30   59.6     4    4.1    59      6.2   937.8    0.00       0    53.2
 328    0:40   59.4     4    3.6   341      5.8   937.7    0.00       0    53.2
 328    0:50   58.3     5    4.5    18      6.1   937.6    0.00       0    53.1
 328    1:00   57.6     6    5.0    62      7.2   937.5    0.00       0    53.0
 328    1:10   58.2     6    4.0    88      5.0   937.4    0.00       0    52.9
 328    1:20   58.5     6    3.9    72      5.3   937.4    0.00       0    52.8
 328    1:30   58.6     6    3.4    82      5.3   937.4    0.00       0    52.7
 328    1:40   58.9     6    2.7    15      5.3   937.4    0.00       0    52.6
 328    1:50   58.5     6    2.4    60      5.0   937.4    0.00       0    52.5
 328    2:00   58.9     6    3.0   102      6.5   937.4    0.00       0    52.5
 328    2:10   59.3     5    1.5   108      3.0   937.4    0.00       0    52.4
 328    2:20   59.0     6    2.8   108      4.2   937.3    0.00       0    52.3
 328    2:30   59.3     5    1.7   142      3.9   937.4    0.00       0    52.2
 328    2:40   59.3     6    2.2   102      5.3   937.3    0.00       0    52.1
 328    2:50   59.4     5    4.3    60      8.3   937.4    0.00       0    52.1
 328    3:00   59.2     5    1.7    35      3.9   937.3    0.00       0    52.0
 328    3:10   58.8     6    2.3   289      3.9   937.3    0.00       0    51.9
 328    3:20   58.4     6    2.6    12      5.6   937.3    0.00       0    51.9
 328    3:30   58.6     6    3.4    37     10.4   937.3    0.00       0    51.8
 328    3:40   58.4     6    8.7    57     13.3   937.3    0.00       0    51.7
 328    3:50   58.3     6    5.8    81     14.4   937.2    0.00       0    51.7
 328    4:00   58.2     7    5.7    91     10.9   937.2    0.00       0    51.6
 328    4:10   57.7     7    5.5    86     11.5   937.1    0.00       0    51.6
 328    4:20   57.7     7    5.5   107     10.0   937.1    0.00       0    51.5
 328    4:30   57.9     7    5.4   107     13.9   937.2    0.00       0    51.4
 328    4:40   57.9     7    4.5    99     14.2   937.3    0.00       0    51.4
 328    4:50   57.9     8    4.7   111     12.3   937.3    0.00       0    51.3
 328    5:00   56.2    12    3.1   174      7.6   937.3    0.00       0    51.2
 328    5:10   57.8     8    3.7    16      9.1   937.3    0.00       0    51.2
 328    5:20   57.3    10    2.5   275      4.5   937.4    0.00       0    51.1
 328    5:30   57.1     8    3.0   310      5.1   937.5    0.00       0    51.1
 328    5:40   57.0     8    3.0   324      4.5   937.6    0.00       0    51.1
 328    5:50   58.1     7    3.6    47      9.9   937.6    0.00       0    51.1
 328    6:00   59.2     7    6.3    86     12.7   937.6    0.00       0    51.0
 328    6:10   59.2     8    9.7    80     16.7   937.7    0.00       0    50.9
 328    6:20   59.0     8    6.8    91     11.9   937.8    0.00       0    50.9
 328    6:30   58.4     8    5.4    10     10.4   938.0    0.00       0    50.8
 328    6:40   57.8     8    3.8   305      9.0   938.1    0.00       1    50.7
 328    6:50   57.8     8    5.3    11     14.4   938.1    0.00       3    50.7
 328    7:00   58.5     8    9.1    67     15.3   938.1    0.00       5    50.7
 328    7:10   58.8     9    8.7    79     18.3   938.2    0.00       9    50.6
 328    7:20   58.4     9    8.9    84     18.9   938.3    0.00      13    50.6
 328    7:30   58.5     9    4.2    61     17.0   938.5    0.00      42    50.5
 328    7:40   59.4     9    7.7    62     15.9   938.5    0.00     134    50.5
 328    7:50   59.7     9    5.2   288     12.5   938.6    0.00     165    50.4
 328    8:00   58.0    10    3.7   297      6.4   938.8    0.00     195    50.4
 328    8:10   58.0    10    4.9   301      7.5   938.9    0.00     226    50.4
 328    8:20   58.2    10    5.6   318     13.6   939.0    0.00     259    50.3
 328    8:30   59.2    11    5.2   337      9.8   939.1    0.00     290    50.4
 328    8:40   58.8    11    4.7   326     12.5   939.2    0.00     318    50.4

Return to Highlands Peak graphs page.


Western Regional Climate Center,wrcc@dri.edu